sensor_id;sensor_type;location;lat;lon;timestamp;pressure;altitude;pressure_sealevel;temperature;humidity
46876;BME280;32866;50.160;14.768;2024-01-15T00:02:11;97683.13;;;-0.76;100.00
46876;BME280;32866;50.160;14.768;2024-01-15T00:04:37;97677.75;;;-0.76;100.00
46876;BME280;32866;50.160;14.768;2024-01-15T00:07:04;97677.75;;;-0.76;100.00
46876;BME280;32866;50.160;14.768;2024-01-15T00:09:30;97679.38;;;-0.82;100.00
46876;BME280;32866;50.160;14.768;2024-01-15T00:11:56;97671.69;;;-0.80;100.00
46876;BME280;32866;50.160;14.768;2024-01-15T00:14:22;97653.25;;;-0.82;100.00
46876;BME280;32866;50.160;14.768;2024-01-15T00:16:48;97657.50;;;-0.84;100.00
46876;BME280;32866;50.160;14.768;2024-01-15T00:19:16;97656.00;;;-0.89;100.00
46876;BME280;32866;50.160;14.768;2024-01-15T00:21:42;97643.00;;;-0.94;100.00
46876;BME280;32866;50.160;14.768;2024-01-15T00:24:08;97644.94;;;-0.95;100.00
46876;BME280;32866;50.160;14.768;2024-01-15T00:26:34;97640.72;;;-0.96;100.00
46876;BME280;32866;50.160;14.768;2024-01-15T00:28:59;97642.28;;;-0.98;100.00
46876;BME280;32866;50.160;14.768;2024-01-15T00:31:25;97631.88;;;-0.96;100.00
46876;BME280;32866;50.160;14.768;2024-01-15T00:33:51;97638.13;;;-1.03;100.00
46876;BME280;32866;50.160;14.768;2024-01-15T00:36:17;97633.31;;;-1.19;100.00
46876;BME280;32866;50.160;14.768;2024-01-15T00:38:43;97632.72;;;-1.34;100.00
46876;BME280;32866;50.160;14.768;2024-01-15T00:41:09;97625.53;;;-1.47;100.00
46876;BME280;32866;50.160;14.768;2024-01-15T00:43:35;97629.41;;;-1.48;100.00
46876;BME280;32866;50.160;14.768;2024-01-15T00:46:01;97626.97;;;-1.36;100.00
46876;BME280;32866;50.160;14.768;2024-01-15T00:48:27;97573.19;;;-1.70;100.00
46876;BME280;32866;50.160;14.768;2024-01-15T00:50:53;97573.50;;;-1.64;100.00
46876;BME280;32866;50.160;14.768;2024-01-15T00:53:20;97615.38;;;-1.29;100.00
46876;BME280;32866;50.160;14.768;2024-01-15T00:55:48;97620.72;;;-1.25;100.00
46876;BME280;32866;50.160;14.768;2024-01-15T00:58:14;97597.00;;;-1.34;100.00
46876;BME280;32866;50.160;14.768;2024-01-15T01:00:40;97610.06;;;-1.36;100.00
46876;BME280;32866;50.160;14.768;2024-01-15T01:03:06;97601.25;;;-1.37;100.00
46876;BME280;32866;50.160;14.768;2024-01-15T01:05:33;97594.72;;;-1.36;100.00
46876;BME280;32866;50.160;14.768;2024-01-15T01:07:58;97590.47;;;-1.33;100.00
46876;BME280;32866;50.160;14.768;2024-01-15T01:10:24;97598.53;;;-1.33;100.00
46876;BME280;32866;50.160;14.768;2024-01-15T01:12:50;97610.84;;;-1.36;100.00
46876;BME280;32866;50.160;14.768;2024-01-15T01:15:16;97596.94;;;-1.27;100.00
46876;BME280;32866;50.160;14.768;2024-01-15T01:17:42;97586.97;;;-1.30;100.00
46876;BME280;32866;50.160;14.768;2024-01-15T01:20:08;97565.56;;;-1.37;100.00
46876;BME280;32866;50.160;14.768;2024-01-15T01:22:36;97595.41;;;-1.28;100.00
46876;BME280;32866;50.160;14.768;2024-01-15T01:25:02;97600.00;;;-1.28;100.00
46876;BME280;32866;50.160;14.768;2024-01-15T01:27:28;97590.41;;;-1.29;100.00
46876;BME280;32866;50.160;14.768;2024-01-15T01:29:54;97541.28;;;-1.64;100.00
46876;BME280;32866;50.160;14.768;2024-01-15T01:32:20;97588.06;;;-1.24;100.00
46876;BME280;32866;50.160;14.768;2024-01-15T01:34:46;97580.00;;;-1.24;100.00
46876;BME280;32866;50.160;14.768;2024-01-15T01:37:11;97578.91;;;-1.30;100.00
46876;BME280;32866;50.160;14.768;2024-01-15T01:39:39;97579.25;;;-1.28;100.00
46876;BME280;32866;50.160;14.768;2024-01-15T01:42:05;97580.81;;;-1.27;100.00
46876;BME280;32866;50.160;14.768;2024-01-15T01:44:31;97539.69;;;-1.58;100.00
46876;BME280;32866;50.160;14.768;2024-01-15T01:46:57;97576.53;;;-1.24;100.00
46876;BME280;32866;50.160;14.768;2024-01-15T01:49:24;97560.06;;;-1.26;100.00
46876;BME280;32866;50.160;14.768;2024-01-15T01:51:50;97573.09;;;-1.25;100.00
46876;BME280;32866;50.160;14.768;2024-01-15T01:54:16;97564.63;;;-1.23;100.00
46876;BME280;32866;50.160;14.768;2024-01-15T01:56:43;97568.91;;;-1.29;100.00
46876;BME280;32866;50.160;14.768;2024-01-15T01:59:10;97559.28;;;-1.27;100.00
46876;BME280;32866;50.160;14.768;2024-01-15T02:01:37;97518.25;;;-1.62;100.00
46876;BME280;32866;50.160;14.768;2024-01-15T02:04:04;97506.75;;;-1.66;100.00
46876;BME280;32866;50.160;14.768;2024-01-15T02:06:30;97499.47;;;-1.65;100.00
46876;BME280;32866;50.160;14.768;2024-01-15T02:08:56;97502.56;;;-1.67;100.00
46876;BME280;32866;50.160;14.768;2024-01-15T02:11:23;97555.06;;;-1.28;100.00
46876;BME280;32866;50.160;14.768;2024-01-15T02:13:49;97518.78;;;-1.43;100.00
46876;BME280;32866;50.160;14.768;2024-01-15T02:16:15;97517.09;;;-1.64;100.00
46876;BME280;32866;50.160;14.768;2024-01-15T02:18:42;97566.13;;;-1.19;100.00
46876;BME280;32866;50.160;14.768;2024-01-15T02:21:09;97560.34;;;-1.17;100.00
46876;BME280;32866;50.160;14.768;2024-01-15T02:23:35;97558.41;;;-1.17;100.00
46876;BME280;32866;50.160;14.768;2024-01-15T02:26:01;97546.22;;;-1.25;100.00
46876;BME280;32866;50.160;14.768;2024-01-15T02:28:27;97545.41;;;-1.22;100.00
46876;BME280;32866;50.160;14.768;2024-01-15T02:30:53;97550.44;;;-1.24;100.00
46876;BME280;32866;50.160;14.768;2024-01-15T02:33:18;97541.63;;;-1.28;100.00
46876;BME280;32866;50.160;14.768;2024-01-15T02:35:44;97534.75;;;-1.29;100.00
46876;BME280;32866;50.160;14.768;2024-01-15T02:38:12;97536.66;;;-1.29;100.00
46876;BME280;32866;50.160;14.768;2024-01-15T02:40:38;97539.34;;;-1.29;100.00
46876;BME280;32866;50.160;14.768;2024-01-15T02:43:04;97534.03;;;-1.33;100.00
46876;BME280;32866;50.160;14.768;2024-01-15T02:45:29;97545.13;;;-1.31;100.00
46876;BME280;32866;50.160;14.768;2024-01-15T02:47:55;97530.88;;;-1.28;100.00
46876;BME280;32866;50.160;14.768;2024-01-15T02:50:21;97531.69;;;-1.31;100.00
46876;BME280;32866;50.160;14.768;2024-01-15T02:52:47;97522.16;;;-1.36;100.00
46876;BME280;32866;50.160;14.768;2024-01-15T02:55:13;97525.59;;;-1.35;100.00
46876;BME280;32866;50.160;14.768;2024-01-15T02:57:38;97529.00;;;-1.31;100.00
46876;BME280;32866;50.160;14.768;2024-01-15T03:00:04;97529.00;;;-1.31;100.00
46876;BME280;32866;50.160;14.768;2024-01-15T03:02:30;97532.50;;;-1.34;100.00
46876;BME280;32866;50.160;14.768;2024-01-15T03:04:58;97521.03;;;-1.38;100.00
46876;BME280;32866;50.160;14.768;2024-01-15T03:07:25;97532.97;;;-1.43;100.00
46876;BME280;32866;50.160;14.768;2024-01-15T03:09:51;97522.63;;;-1.44;100.00
46876;BME280;32866;50.160;14.768;2024-01-15T03:12:16;97532.63;;;-1.45;100.00
46876;BME280;32866;50.160;14.768;2024-01-15T03:14:43;97527.56;;;-1.39;100.00
46876;BME280;32866;50.160;14.768;2024-01-15T03:17:09;97521.84;;;-1.41;100.00
46876;BME280;32866;50.160;14.768;2024-01-15T03:19:35;97537.91;;;-1.38;100.00
46876;BME280;32866;50.160;14.768;2024-01-15T03:22:01;97534.47;;;-1.38;100.00
46876;BME280;32866;50.160;14.768;2024-01-15T03:24:28;97525.22;;;-1.34;100.00
46876;BME280;32866;50.160;14.768;2024-01-15T03:26:53;97509.88;;;-1.37;100.00
46876;BME280;32866;50.160;14.768;2024-01-15T03:29:19;97511.09;;;-1.41;100.00
46876;BME280;32866;50.160;14.768;2024-01-15T03:31:45;97514.50;;;-1.37;100.00
46876;BME280;32866;50.160;14.768;2024-01-15T03:34:11;97504.09;;;-1.35;100.00
46876;BME280;32866;50.160;14.768;2024-01-15T03:36:37;97511.03;;;-1.38;100.00
46876;BME280;32866;50.160;14.768;2024-01-15T03:39:02;97514.97;;;-1.46;100.00
46876;BME280;32866;50.160;14.768;2024-01-15T03:41:28;97513.91;;;-1.52;100.00
46876;BME280;32866;50.160;14.768;2024-01-15T03:43:54;97537.41;;;-1.60;100.00
46876;BME280;32866;50.160;14.768;2024-01-15T03:46:20;97538.97;;;-1.62;100.00
46876;BME280;32866;50.160;14.768;2024-01-15T03:48:45;97539.97;;;-1.49;100.00
46876;BME280;32866;50.160;14.768;2024-01-15T03:51:11;97545.72;;;-1.47;100.00
46876;BME280;32866;50.160;14.768;2024-01-15T03:53:38;97545.66;;;-1.43;100.00
46876;BME280;32866;50.160;14.768;2024-01-15T03:56:03;97538.69;;;-1.37;100.00
46876;BME280;32866;50.160;14.768;2024-01-15T03:58:29;97533.34;;;-1.41;100.00
46876;BME280;32866;50.160;14.768;2024-01-15T04:00:55;97545.66;;;-1.43;100.00
46876;BME280;32866;50.160;14.768;2024-01-15T04:03:21;97545.22;;;-1.38;100.00
46876;BME280;32866;50.160;14.768;2024-01-15T04:05:46;97541.38;;;-1.37;100.00
46876;BME280;32866;50.160;14.768;2024-01-15T04:08:12;97546.72;;;-1.34;100.00
46876;BME280;32866;50.160;14.768;2024-01-15T04:10:38;97548.22;;;-1.33;100.00
46876;BME280;32866;50.160;14.768;2024-01-15T04:13:04;97544.38;;;-1.32;100.00
46876;BME280;32866;50.160;14.768;2024-01-15T04:15:29;97538.66;;;-1.34;100.00
46876;BME280;32866;50.160;14.768;2024-01-15T04:17:55;97540.94;;;-1.32;100.00
46876;BME280;32866;50.160;14.768;2024-01-15T04:20:21;97541.72;;;-1.35;100.00
46876;BME280;32866;50.160;14.768;2024-01-15T04:22:47;97534.47;;;-1.38;100.00
46876;BME280;32866;50.160;14.768;2024-01-15T04:25:13;97536.72;;;-1.33;100.00
46876;BME280;32866;50.160;14.768;2024-01-15T04:27:39;97530.88;;;-1.28;100.00
46876;BME280;32866;50.160;14.768;2024-01-15T04:30:05;97543.53;;;-1.25;100.00
46876;BME280;32866;50.160;14.768;2024-01-15T04:32:30;97541.59;;;-1.24;100.00
46876;BME280;32866;50.160;14.768;2024-01-15T04:34:56;97530.44;;;-1.23;100.00
46876;BME280;32866;50.160;14.768;2024-01-15T04:37:22;97525.47;;;-1.24;100.00
46876;BME280;32866;50.160;14.768;2024-01-15T04:39:48;97525.09;;;-1.26;100.00
46876;BME280;32866;50.160;14.768;2024-01-15T04:42:14;97520.88;;;-1.27;100.00
46876;BME280;32866;50.160;14.768;2024-01-15T04:44:39;97520.59;;;-1.33;100.00
46876;BME280;32866;50.160;14.768;2024-01-15T04:47:05;97518.69;;;-1.36;100.00
46876;BME280;32866;50.160;14.768;2024-01-15T04:49:31;97514.50;;;-1.37;100.00
46876;BME280;32866;50.160;14.768;2024-01-15T04:51:57;97528.00;;;-1.44;100.00
46876;BME280;32866;50.160;14.768;2024-01-15T04:54:23;97527.31;;;-1.48;100.00
46876;BME280;32866;50.160;14.768;2024-01-15T04:56:48;97518.06;;;-1.47;100.00
46876;BME280;32866;50.160;14.768;2024-01-15T04:59:14;97519.63;;;-1.50;100.00
46876;BME280;32866;50.160;14.768;2024-01-15T05:01:40;97518.88;;;-1.51;100.00
46876;BME280;32866;50.160;14.768;2024-01-15T05:04:06;97529.25;;;-1.53;100.00
46876;BME280;32866;50.160;14.768;2024-01-15T05:06:32;97520.53;;;-1.60;100.00
46876;BME280;32866;50.160;14.768;2024-01-15T05:08:57;97525.53;;;-1.62;100.00
46876;BME280;32866;50.160;14.768;2024-01-15T05:11:23;97531.34;;;-1.67;100.00
46876;BME280;32866;50.160;14.768;2024-01-15T05:13:49;97456.69;;;-2.18;100.00
46876;BME280;32866;50.160;14.768;2024-01-15T05:16:15;97457.47;;;-2.17;100.00
46876;BME280;32866;50.160;14.768;2024-01-15T05:18:41;97531.38;;;-1.71;100.00
46876;BME280;32866;50.160;14.768;2024-01-15T05:21:09;97541.25;;;-1.61;100.00
46876;BME280;32866;50.160;14.768;2024-01-15T05:23:35;97484.47;;;-1.97;100.00
46876;BME280;32866;50.160;14.768;2024-01-15T05:26:00;97532.03;;;-1.60;100.00
46876;BME280;32866;50.160;14.768;2024-01-15T05:28:26;97532.88;;;-1.66;100.00
46876;BME280;32866;50.160;14.768;2024-01-15T05:30:52;97538.63;;;-1.68;100.00
46876;BME280;32866;50.160;14.768;2024-01-15T05:33:18;97547.94;;;-1.76;100.00
46876;BME280;32866;50.160;14.768;2024-01-15T05:35:44;97540.38;;;-1.89;100.00
46876;BME280;32866;50.160;14.768;2024-01-15T05:38:10;97543.50;;;-1.94;100.00
46876;BME280;32866;50.160;14.768;2024-01-15T05:40:36;97555.22;;;-1.77;100.00
46876;BME280;32866;50.160;14.768;2024-01-15T05:43:02;97560.47;;;-1.66;100.00
46876;BME280;32866;50.160;14.768;2024-01-15T05:45:28;97557.75;;;-1.59;100.00
46876;BME280;32866;50.160;14.768;2024-01-15T05:47:54;97555.44;;;-1.60;100.00
46876;BME280;32866;50.160;14.768;2024-01-15T05:50:20;97557.75;;;-1.59;100.00
46876;BME280;32866;50.160;14.768;2024-01-15T05:52:45;97559.63;;;-1.56;100.00
46876;BME280;32866;50.160;14.768;2024-01-15T05:55:17;97558.81;;;-1.53;100.00
46876;BME280;32866;50.160;14.768;2024-01-15T05:57:44;97555.38;;;-1.53;100.00
46876;BME280;32866;50.160;14.768;2024-01-15T06:00:10;97555.31;;;-1.50;100.00
46876;BME280;32866;50.160;14.768;2024-01-15T06:02:39;97546.94;;;-1.55;100.00
46876;BME280;32866;50.160;14.768;2024-01-15T06:05:05;97538.16;;;-1.59;100.00
46876;BME280;32866;50.160;14.768;2024-01-15T06:07:32;97546.22;;;-1.59;100.00
46876;BME280;32866;50.160;14.768;2024-01-15T06:09:57;97535.50;;;-1.63;100.00
46876;BME280;32866;50.160;14.768;2024-01-15T06:12:23;97547.47;;;-1.67;100.00
46876;BME280;32866;50.160;14.768;2024-01-15T06:14:49;97549.47;;;-1.75;100.00
46876;BME280;32866;50.160;14.768;2024-01-15T06:17:15;97555.28;;;-1.80;100.00
46876;BME280;32866;50.160;14.768;2024-01-15T06:19:40;97549.97;;;-1.88;100.00
46876;BME280;32866;50.160;14.768;2024-01-15T06:22:06;97551.22;;;-1.96;100.00
46876;BME280;32866;50.160;14.768;2024-01-15T06:24:32;97556.22;;;-2.01;100.00
46876;BME280;32866;50.160;14.768;2024-01-15T06:26:58;97574.69;;;-2.07;100.00
46876;BME280;32866;50.160;14.768;2024-01-15T06:29:25;97568.94;;;-2.06;100.00
46876;BME280;32866;50.160;14.768;2024-01-15T06:31:51;97577.09;;;-2.20;100.00
46876;BME280;32866;50.160;14.768;2024-01-15T06:34:17;97571.47;;;-2.33;100.00
46876;BME280;32866;50.160;14.768;2024-01-15T06:36:43;97574.94;;;-2.36;100.00
46876;BME280;32866;50.160;14.768;2024-01-15T06:39:08;97579.94;;;-2.42;100.00
46876;BME280;32866;50.160;14.768;2024-01-15T06:41:35;97577.28;;;-2.45;100.00
46876;BME280;32866;50.160;14.768;2024-01-15T06:44:07;97577.28;;;-2.45;100.00
46876;BME280;32866;50.160;14.768;2024-01-15T06:46:32;97576.56;;;-2.49;100.00
46876;BME280;32866;50.160;14.768;2024-01-15T06:48:58;97582.63;;;-2.38;100.00
46876;BME280;32866;50.160;14.768;2024-01-15T06:51:24;97580.28;;;-2.36;100.00
46876;BME280;32866;50.160;14.768;2024-01-15T06:53:50;97586.09;;;-2.41;100.00
46876;BME280;32866;50.160;14.768;2024-01-15T06:56:15;97591.13;;;-2.50;100.00
46876;BME280;32866;50.160;14.768;2024-01-15T06:58:41;97605.28;;;-2.50;100.00
46876;BME280;32866;50.160;14.768;2024-01-15T07:01:07;97606.09;;;-2.53;100.00
46876;BME280;32866;50.160;14.768;2024-01-15T07:03:34;97601.88;;;-2.54;100.00
46876;BME280;32866;50.160;14.768;2024-01-15T07:05:59;97616.50;;;-2.66;100.00
46876;BME280;32866;50.160;14.768;2024-01-15T07:08:25;97612.69;;;-2.68;100.00
46876;BME280;32866;50.160;14.768;2024-01-15T07:10:51;97624.22;;;-2.71;100.00
46876;BME280;32866;50.160;14.768;2024-01-15T07:13:17;97618.06;;;-2.72;100.00
46876;BME280;32866;50.160;14.768;2024-01-15T07:15:43;97612.69;;;-2.68;100.00
46876;BME280;32866;50.160;14.768;2024-01-15T07:18:10;97611.91;;;-2.69;100.00
46876;BME280;32866;50.160;14.768;2024-01-15T07:20:36;97617.16;;;-2.47;100.00
46876;BME280;32866;50.160;14.768;2024-01-15T07:23:02;97542.94;;;-2.65;100.00
46876;BME280;32866;50.160;14.768;2024-01-15T07:25:29;97589.69;;;-2.13;100.00
46876;BME280;32866;50.160;14.768;2024-01-15T07:27:55;97621.75;;;-1.50;100.00
46876;BME280;32866;50.160;14.768;2024-01-15T07:30:21;97619.13;;;-1.23;100.00
46876;BME280;32866;50.160;14.768;2024-01-15T07:32:47;97618.91;;;-1.01;100.00
46876;BME280;32866;50.160;14.768;2024-01-15T07:35:14;97626.50;;;-0.96;100.00
46876;BME280;32866;50.160;14.768;2024-01-15T07:37:40;97631.34;;;-1.15;100.00
46876;BME280;32866;50.160;14.768;2024-01-15T07:40:06;97633.63;;;-1.13;100.00
46876;BME280;32866;50.160;14.768;2024-01-15T07:42:34;97638.34;;;-1.24;100.00
46876;BME280;32866;50.160;14.768;2024-01-15T07:45:00;97634.59;;;-1.31;100.00
46876;BME280;32866;50.160;14.768;2024-01-15T07:47:26;97627.38;;;-1.37;100.00
46876;BME280;32866;50.160;14.768;2024-01-15T07:49:53;97640.81;;;-1.37;100.00
46876;BME280;32866;50.160;14.768;2024-01-15T07:52:19;97634.91;;;-1.25;100.00
46876;BME280;32866;50.160;14.768;2024-01-15T07:54:45;97644.06;;;-1.19;100.00
46876;BME280;32866;50.160;14.768;2024-01-15T07:57:11;97636.41;;;-1.20;100.00
46876;BME280;32866;50.160;14.768;2024-01-15T07:59:37;97636.63;;;-1.07;100.00
46876;BME280;32866;50.160;14.768;2024-01-15T08:02:03;97630.66;;;-0.88;100.00
46876;BME280;32866;50.160;14.768;2024-01-15T08:04:28;97629.34;;;-0.76;100.00
46876;BME280;32866;50.160;14.768;2024-01-15T08:06:54;97622.41;;;-0.46;100.00
46876;BME280;32866;50.160;14.768;2024-01-15T08:09:20;97632.31;;;-0.40;100.00
46876;BME280;32866;50.160;14.768;2024-01-15T08:11:46;97624.34;;;-0.47;100.00
46876;BME280;32866;50.160;14.768;2024-01-15T08:14:18;97625.50;;;-0.48;100.00
46876;BME280;32866;50.160;14.768;2024-01-15T08:16:43;97606.66;;;0.03;100.00
46876;BME280;32866;50.160;14.768;2024-01-15T08:19:10;97619.97;;;-0.10;100.00
46876;BME280;32866;50.160;14.768;2024-01-15T08:21:36;97606.03;;;-0.05;100.00
46876;BME280;32866;50.160;14.768;2024-01-15T08:24:02;97611.41;;;-0.28;100.00
46876;BME280;32866;50.160;14.768;2024-01-15T08:26:28;97625.56;;;-0.24;100.00
46876;BME280;32866;50.160;14.768;2024-01-15T08:28:54;97614.00;;;-0.48;100.00
46876;BME280;32866;50.160;14.768;2024-01-15T08:31:20;97618.50;;;-0.42;100.00
46876;BME280;32866;50.160;14.768;2024-01-15T08:33:46;97609.50;;;-0.31;100.00
46876;BME280;32866;50.160;14.768;2024-01-15T08:36:12;97603.63;;;-0.50;100.00
46876;BME280;32866;50.160;14.768;2024-01-15T08:38:38;97611.84;;;-0.61;100.00
46876;BME280;32866;50.160;14.768;2024-01-15T08:41:04;97615.31;;;-0.60;100.00
46876;BME280;32866;50.160;14.768;2024-01-15T08:43:30;97619.50;;;-0.59;100.00
46876;BME280;32866;50.160;14.768;2024-01-15T08:45:58;97619.25;;;-0.41;100.00
46876;BME280;32866;50.160;14.768;2024-01-15T08:48:24;97608.72;;;-0.32;100.00
46876;BME280;32866;50.160;14.768;2024-01-15T08:50:53;97614.84;;;-0.28;100.00
46876;BME280;32866;50.160;14.768;2024-01-15T08:53:19;97615.84;;;-0.18;100.00
46876;BME280;32866;50.160;14.768;2024-01-15T08:55:44;97613.97;;;-0.21;100.00
46876;BME280;32866;50.160;14.768;2024-01-15T08:58:11;97614.78;;;-0.01;100.00
46876;BME280;32866;50.160;14.768;2024-01-15T09:00:36;97603.81;;;-0.10;100.00
46876;BME280;32866;50.160;14.768;2024-01-15T09:03:02;97620.38;;;-0.11;100.00
46876;BME280;32866;50.160;14.768;2024-01-15T09:05:28;97620.03;;;-0.13;100.00
46876;BME280;32866;50.160;14.768;2024-01-15T09:07:54;97619.38;;;0.03;100.00
46876;BME280;32866;50.160;14.768;2024-01-15T09:10:20;97622.75;;;0.07;100.00
46876;BME280;32866;50.160;14.768;2024-01-15T09:12:46;97618.47;;;-0.14;100.00
46876;BME280;32866;50.160;14.768;2024-01-15T09:15:12;97623.81;;;-0.11;100.00
46876;BME280;32866;50.160;14.768;2024-01-15T09:17:37;97617.09;;;0.01;100.00
46876;BME280;32866;50.160;14.768;2024-01-15T09:20:03;97617.84;;;0.25;100.00
46876;BME280;32866;50.160;14.768;2024-01-15T09:22:31;97621.59;;;0.31;100.00
46876;BME280;32866;50.160;14.768;2024-01-15T09:24:57;97619.50;;;0.19;100.00
46876;BME280;32866;50.160;14.768;2024-01-15T09:27:22;97613.97;;;0.26;100.00
46876;BME280;32866;50.160;14.768;2024-01-15T09:29:48;97620.00;;;0.34;100.00
46876;BME280;32866;50.160;14.768;2024-01-15T09:32:14;97613.34;;;0.18;100.00
46876;BME280;32866;50.160;14.768;2024-01-15T09:34:41;97628.03;;;0.14;100.00
46876;BME280;32866;50.160;14.768;2024-01-15T09:37:07;97617.16;;;-0.03;100.00
46876;BME280;32866;50.160;14.768;2024-01-15T09:39:33;97617.66;;;-0.11;100.00
46876;BME280;32866;50.160;14.768;2024-01-15T09:41:58;97612.09;;;-0.01;100.00
46876;BME280;32866;50.160;14.768;2024-01-15T09:44:24;97616.56;;;0.10;100.00
46876;BME280;32866;50.160;14.768;2024-01-15T09:46:52;97614.09;;;0.19;100.00
46876;BME280;32866;50.160;14.768;2024-01-15T09:49:18;97602.09;;;0.00;100.00
46876;BME280;32866;50.160;14.768;2024-01-15T09:51:44;97600.38;;;-0.14;100.00
46876;BME280;32866;50.160;14.768;2024-01-15T09:54:10;97584.47;;;-0.05;100.00
46876;BME280;32866;50.160;14.768;2024-01-15T09:56:39;97584.53;;;-0.08;100.00
46876;BME280;32866;50.160;14.768;2024-01-15T09:59:05;97582.25;;;-0.10;100.00
46876;BME280;32866;50.160;14.768;2024-01-15T10:01:31;97572.53;;;-0.04;100.00
46876;BME280;32866;50.160;14.768;2024-01-15T10:03:57;97572.03;;;0.02;100.00
46876;BME280;32866;50.160;14.768;2024-01-15T10:06:23;97568.88;;;0.07;100.00
46876;BME280;32866;50.160;14.768;2024-01-15T10:08:50;97571.22;;;0.05;100.00
46876;BME280;32866;50.160;14.768;2024-01-15T10:11:16;97555.88;;;0.02;100.00
46876;BME280;32866;50.160;14.768;2024-01-15T10:13:43;97548.25;;;0.00;100.00
46876;BME280;32866;50.160;14.768;2024-01-15T10:16:09;97557.00;;;0.04;100.00
46876;BME280;32866;50.160;14.768;2024-01-15T10:18:34;97553.56;;;0.04;100.00
46876;BME280;32866;50.160;14.768;2024-01-15T10:21:07;97561.66;;;0.04;100.00
46876;BME280;32866;50.160;14.768;2024-01-15T10:23:33;97545.97;;;-0.02;100.00
46876;BME280;32866;50.160;14.768;2024-01-15T10:25:59;97551.22;;;0.06;100.00
46876;BME280;32866;50.160;14.768;2024-01-15T10:28:29;97541.78;;;0.17;100.00
46876;BME280;32866;50.160;14.768;2024-01-15T10:30:59;97556.16;;;0.31;100.00
46876;BME280;32866;50.160;14.768;2024-01-15T10:33:25;97552.22;;;0.35;100.00
46876;BME280;32866;50.160;14.768;2024-01-15T10:35:58;97556.19;;;0.51;100.00
46876;BME280;32866;50.160;14.768;2024-01-15T10:38:25;97553.63;;;0.44;100.00
46876;BME280;32866;50.160;14.768;2024-01-15T10:40:51;97551.03;;;0.36;100.00
46876;BME280;32866;50.160;14.768;2024-01-15T10:43:17;97544.81;;;0.40;100.00
46876;BME280;32866;50.160;14.768;2024-01-15T10:45:44;97551.53;;;0.51;100.00
46876;BME280;32866;50.160;14.768;2024-01-15T10:48:10;97557.06;;;0.64;100.00
46876;BME280;32866;50.160;14.768;2024-01-15T10:50:36;97552.25;;;0.76;100.00
46876;BME280;32866;50.160;14.768;2024-01-15T10:53:02;97555.34;;;0.74;100.00
46876;BME280;32866;50.160;14.768;2024-01-15T10:55:28;97555.88;;;0.65;100.00
46876;BME280;32866;50.160;14.768;2024-01-15T10:57:55;97557.47;;;0.83;100.00
46876;BME280;32866;50.160;14.768;2024-01-15T11:00:22;97552.84;;;0.83;100.00
46876;BME280;32866;50.160;14.768;2024-01-15T11:02:47;97545.47;;;0.67;100.00
46876;BME280;32866;50.160;14.768;2024-01-15T11:05:13;97546.47;;;0.73;100.00
46876;BME280;32866;50.160;14.768;2024-01-15T11:07:39;97537.72;;;0.69;100.00
46876;BME280;32866;50.160;14.768;2024-01-15T11:10:05;97541.56;;;0.68;100.00
46876;BME280;32866;50.160;14.768;2024-01-15T11:12:31;97534.19;;;0.72;100.00
46876;BME280;32866;50.160;14.768;2024-01-15T11:15:01;97532.88;;;0.81;100.00
46876;BME280;32866;50.160;14.768;2024-01-15T11:17:30;97535.44;;;0.68;100.00
46876;BME280;32866;50.160;14.768;2024-01-15T11:20:15;97525.41;;;0.68;100.00
46876;BME280;32866;50.160;14.768;2024-01-15T11:22:47;97533.22;;;0.63;100.00
46876;BME280;32866;50.160;14.768;2024-01-15T11:25:13;97523.81;;;0.71;100.00
46876;BME280;32866;50.160;14.768;2024-01-15T11:27:40;97517.53;;;0.78;100.00
46876;BME280;32866;50.160;14.768;2024-01-15T11:30:09;97523.38;;;0.92;100.00
46876;BME280;32866;50.160;14.768;2024-01-15T11:32:38;97526.56;;;0.87;100.00
46876;BME280;32866;50.160;14.768;2024-01-15T11:35:08;97526.56;;;0.87;100.00
46876;BME280;32866;50.160;14.768;2024-01-15T11:40:24;97528.84;;;0.89;100.00
46876;BME280;32866;50.160;14.768;2024-01-15T11:43:03;97526.50;;;0.91;100.00
46876;BME280;32866;50.160;14.768;2024-01-15T11:45:30;97523.63;;;0.98;100.00
46876;BME280;32866;50.160;14.768;2024-01-15T11:48:11;97526.81;;;0.93;100.00
46876;BME280;32866;50.160;14.768;2024-01-15T11:50:56;97530.41;;;1.06;100.00
46876;BME280;32866;50.160;14.768;2024-01-15T11:53:27;97527.91;;;1.32;100.00
46876;BME280;32866;50.160;14.768;2024-01-15T11:55:57;97515.44;;;1.55;100.00
46876;BME280;32866;50.160;14.768;2024-01-15T11:58:23;97518.97;;;1.52;100.00
46876;BME280;32866;50.160;14.768;2024-01-15T12:00:50;97515.16;;;1.82;100.00
46876;BME280;32866;50.160;14.768;2024-01-15T12:03:16;97519.41;;;2.12;100.00
46876;BME280;32866;50.160;14.768;2024-01-15T12:05:42;97522.28;;;2.64;100.00
46876;BME280;32866;50.160;14.768;2024-01-15T12:08:08;97522.13;;;3.48;100.00
46876;BME280;32866;50.160;14.768;2024-01-15T12:10:37;97515.00;;;4.24;100.00
46876;BME280;32866;50.160;14.768;2024-01-15T12:15:29;97517.91;;;4.30;98.11
46876;BME280;32866;50.160;14.768;2024-01-15T12:17:56;97455.56;;;3.72;100.00
46876;BME280;32866;50.160;14.768;2024-01-15T12:20:26;97472.75;;;2.67;100.00
46876;BME280;32866;50.160;14.768;2024-01-15T12:22:52;97455.91;;;2.33;100.00
46876;BME280;32866;50.160;14.768;2024-01-15T12:25:19;97455.75;;;1.82;100.00
46876;BME280;32866;50.160;14.768;2024-01-15T12:27:45;97452.66;;;1.51;100.00
46876;BME280;32866;50.160;14.768;2024-01-15T12:30:12;97504.44;;;1.78;100.00
46876;BME280;32866;50.160;14.768;2024-01-15T12:32:40;97506.56;;;1.54;100.00
46876;BME280;32866;50.160;14.768;2024-01-15T12:35:07;97519.25;;;1.41;100.00
46876;BME280;32866;50.160;14.768;2024-01-15T12:37:34;97516.19;;;1.72;100.00
46876;BME280;32866;50.160;14.768;2024-01-15T12:40:00;97514.19;;;2.76;100.00
46876;BME280;32866;50.160;14.768;2024-01-15T12:42:27;97511.94;;;2.75;100.00
46876;BME280;32866;50.160;14.768;2024-01-15T12:44:56;97453.53;;;2.35;100.00